sensor_id;sensor_type;location;lat;lon;timestamp;P1;durP1;ratioP1;P2;durP2;ratioP2
65033;SDS011;51601;51.356;12.458;2022-07-23T00:00:56;11.17;;;7.43;;
65033;SDS011;51601;51.356;12.458;2022-07-23T00:05:10;11.15;;;6.57;;
65033;SDS011;51601;51.356;12.458;2022-07-23T00:09:25;10.60;;;6.32;;
65033;SDS011;51601;51.356;12.458;2022-07-23T00:13:40;11.13;;;6.70;;
65033;SDS011;51601;51.356;12.458;2022-07-23T00:17:54;10.88;;;6.70;;
65033;SDS011;51601;51.356;12.458;2022-07-23T00:22:08;12.73;;;7.07;;
65033;SDS011;51601;51.356;12.458;2022-07-23T00:26:23;11.13;;;7.27;;
65033;SDS011;51601;51.356;12.458;2022-07-23T00:30:37;12.55;;;7.38;;
65033;SDS011;51601;51.356;12.458;2022-07-23T00:34:51;11.02;;;7.38;;
65033;SDS011;51601;51.356;12.458;2022-07-23T00:39:05;12.38;;;7.55;;
65033;SDS011;51601;51.356;12.458;2022-07-23T00:43:21;12.27;;;7.20;;
65033;SDS011;51601;51.356;12.458;2022-07-23T00:47:35;11.82;;;7.07;;
65033;SDS011;51601;51.356;12.458;2022-07-23T00:51:50;11.57;;;7.13;;
65033;SDS011;51601;51.356;12.458;2022-07-23T00:56:04;12.80;;;7.37;;
65033;SDS011;51601;51.356;12.458;2022-07-23T01:00:20;11.43;;;7.07;;
65033;SDS011;51601;51.356;12.458;2022-07-23T01:04:34;11.65;;;7.32;;
65033;SDS011;51601;51.356;12.458;2022-07-23T01:08:48;14.17;;;7.83;;
65033;SDS011;51601;51.356;12.458;2022-07-23T01:13:03;11.57;;;7.57;;
65033;SDS011;51601;51.356;12.458;2022-07-23T01:17:20;13.55;;;7.13;;
65033;SDS011;51601;51.356;12.458;2022-07-23T01:21:35;12.27;;;7.55;;
65033;SDS011;51601;51.356;12.458;2022-07-23T01:25:53;12.43;;;8.10;;
65033;SDS011;51601;51.356;12.458;2022-07-23T01:30:10;13.10;;;7.28;;
65033;SDS011;51601;51.356;12.458;2022-07-23T01:34:25;13.50;;;8.20;;
65033;SDS011;51601;51.356;12.458;2022-07-23T01:38:39;11.83;;;7.87;;
65033;SDS011;51601;51.356;12.458;2022-07-23T01:42:54;11.73;;;7.65;;
65033;SDS011;51601;51.356;12.458;2022-07-23T01:47:08;13.13;;;8.13;;
65033;SDS011;51601;51.356;12.458;2022-07-23T01:51:22;13.80;;;8.63;;
65033;SDS011;51601;51.356;12.458;2022-07-23T01:55:53;12.75;;;7.80;;
65033;SDS011;51601;51.356;12.458;2022-07-23T02:00:09;13.23;;;7.95;;
65033;SDS011;51601;51.356;12.458;2022-07-23T02:04:24;15.18;;;9.93;;
65033;SDS011;51601;51.356;12.458;2022-07-23T02:08:38;13.20;;;7.73;;
65033;SDS011;51601;51.356;12.458;2022-07-23T02:12:52;14.07;;;8.05;;
65033;SDS011;51601;51.356;12.458;2022-07-23T02:17:08;11.43;;;7.60;;
65033;SDS011;51601;51.356;12.458;2022-07-23T02:21:22;12.30;;;8.33;;
65033;SDS011;51601;51.356;12.458;2022-07-23T02:25:37;13.80;;;7.82;;
65033;SDS011;51601;51.356;12.458;2022-07-23T02:29:51;14.15;;;8.00;;
65033;SDS011;51601;51.356;12.458;2022-07-23T02:34:06;10.80;;;7.20;;
65033;SDS011;51601;51.356;12.458;2022-07-23T02:38:23;12.52;;;7.95;;
65033;SDS011;51601;51.356;12.458;2022-07-23T02:42:37;11.02;;;7.20;;
65033;SDS011;51601;51.356;12.458;2022-07-23T02:46:51;10.85;;;7.07;;
65033;SDS011;51601;51.356;12.458;2022-07-23T02:51:07;11.63;;;7.50;;
65033;SDS011;51601;51.356;12.458;2022-07-23T02:55:30;12.10;;;7.20;;
65033;SDS011;51601;51.356;12.458;2022-07-23T02:59:47;13.77;;;7.38;;
65033;SDS011;51601;51.356;12.458;2022-07-23T03:04:02;12.77;;;7.53;;
65033;SDS011;51601;51.356;12.458;2022-07-23T03:08:18;13.00;;;7.57;;
65033;SDS011;51601;51.356;12.458;2022-07-23T03:12:35;12.82;;;7.70;;
65033;SDS011;51601;51.356;12.458;2022-07-23T03:16:49;13.00;;;7.67;;
65033;SDS011;51601;51.356;12.458;2022-07-23T03:21:06;12.77;;;8.20;;
65033;SDS011;51601;51.356;12.458;2022-07-23T03:25:23;15.98;;;7.38;;
65033;SDS011;51601;51.356;12.458;2022-07-23T03:29:37;13.10;;;7.68;;
65033;SDS011;51601;51.356;12.458;2022-07-23T03:33:52;14.40;;;8.10;;
65033;SDS011;51601;51.356;12.458;2022-07-23T03:38:06;12.73;;;8.02;;
65033;SDS011;51601;51.356;12.458;2022-07-23T03:42:21;14.20;;;7.65;;
65033;SDS011;51601;51.356;12.458;2022-07-23T03:46:35;13.77;;;7.80;;
65033;SDS011;51601;51.356;12.458;2022-07-23T03:50:49;14.55;;;8.00;;
65033;SDS011;51601;51.356;12.458;2022-07-23T03:55:03;12.82;;;7.70;;
65033;SDS011;51601;51.356;12.458;2022-07-23T03:59:19;13.27;;;7.43;;
65033;SDS011;51601;51.356;12.458;2022-07-23T04:03:35;11.95;;;7.32;;
65033;SDS011;51601;51.356;12.458;2022-07-23T04:07:49;11.90;;;7.07;;
65033;SDS011;51601;51.356;12.458;2022-07-23T04:12:04;13.48;;;7.70;;
65033;SDS011;51601;51.356;12.458;2022-07-23T04:16:19;11.57;;;6.60;;
65033;SDS011;51601;51.356;12.458;2022-07-23T04:20:34;11.55;;;6.60;;
65033;SDS011;51601;51.356;12.458;2022-07-23T04:24:52;14.05;;;6.90;;
65033;SDS011;51601;51.356;12.458;2022-07-23T04:29:06;13.40;;;7.23;;
65033;SDS011;51601;51.356;12.458;2022-07-23T04:33:22;12.38;;;7.50;;
65033;SDS011;51601;51.356;12.458;2022-07-23T04:37:40;11.40;;;7.47;;
65033;SDS011;51601;51.356;12.458;2022-07-23T04:41:54;14.07;;;8.20;;
65033;SDS011;51601;51.356;12.458;2022-07-23T04:46:08;12.98;;;7.43;;
65033;SDS011;51601;51.356;12.458;2022-07-23T04:50:31;16.38;;;8.02;;
65033;SDS011;51601;51.356;12.458;2022-07-23T04:54:45;15.77;;;8.48;;
65033;SDS011;51601;51.356;12.458;2022-07-23T04:58:58;15.57;;;8.70;;
65033;SDS011;51601;51.356;12.458;2022-07-23T05:03:13;17.55;;;10.45;;
65033;SDS011;51601;51.356;12.458;2022-07-23T05:07:30;22.13;;;11.25;;
65033;SDS011;51601;51.356;12.458;2022-07-23T05:11:44;22.87;;;11.73;;
65033;SDS011;51601;51.356;12.458;2022-07-23T05:15:58;19.77;;;11.05;;
65033;SDS011;51601;51.356;12.458;2022-07-23T05:20:13;21.10;;;11.68;;
65033;SDS011;51601;51.356;12.458;2022-07-23T05:24:28;22.17;;;11.73;;
65033;SDS011;51601;51.356;12.458;2022-07-23T05:28:42;25.10;;;12.88;;
65033;SDS011;51601;51.356;12.458;2022-07-23T05:33:02;23.58;;;12.65;;
65033;SDS011;51601;51.356;12.458;2022-07-23T05:37:16;24.17;;;12.40;;
65033;SDS011;51601;51.356;12.458;2022-07-23T05:41:31;19.07;;;11.37;;
65033;SDS011;51601;51.356;12.458;2022-07-23T05:45:47;26.58;;;12.98;;
65033;SDS011;51601;51.356;12.458;2022-07-23T05:50:03;27.33;;;13.85;;
65033;SDS011;51601;51.356;12.458;2022-07-23T05:54:24;25.20;;;13.40;;
65033;SDS011;51601;51.356;12.458;2022-07-23T05:58:39;22.75;;;12.07;;
65033;SDS011;51601;51.356;12.458;2022-07-23T06:02:54;24.15;;;11.85;;
65033;SDS011;51601;51.356;12.458;2022-07-23T06:07:09;20.50;;;11.70;;
65033;SDS011;51601;51.356;12.458;2022-07-23T06:11:23;17.42;;;11.32;;
65033;SDS011;51601;51.356;12.458;2022-07-23T06:15:38;18.02;;;11.20;;
65033;SDS011;51601;51.356;12.458;2022-07-23T06:19:52;16.60;;;10.60;;
65033;SDS011;51601;51.356;12.458;2022-07-23T06:24:06;21.43;;;10.37;;
65033;SDS011;51601;51.356;12.458;2022-07-23T06:28:20;16.58;;;9.23;;
65033;SDS011;51601;51.356;12.458;2022-07-23T06:32:36;15.15;;;10.13;;
65033;SDS011;51601;51.356;12.458;2022-07-23T06:36:50;16.33;;;9.43;;
65033;SDS011;51601;51.356;12.458;2022-07-23T06:41:04;16.45;;;9.15;;
65033;SDS011;51601;51.356;12.458;2022-07-23T06:45:18;13.57;;;8.35;;
65033;SDS011;51601;51.356;12.458;2022-07-23T06:49:33;13.87;;;8.70;;
65033;SDS011;51601;51.356;12.458;2022-07-23T06:53:47;15.02;;;8.82;;
65033;SDS011;51601;51.356;12.458;2022-07-23T06:58:01;15.45;;;8.65;;
65033;SDS011;51601;51.356;12.458;2022-07-23T07:02:15;16.75;;;9.23;;
65033;SDS011;51601;51.356;12.458;2022-07-23T07:06:30;15.60;;;7.67;;
65033;SDS011;51601;51.356;12.458;2022-07-23T07:10:44;12.75;;;7.50;;
65033;SDS011;51601;51.356;12.458;2022-07-23T07:14:58;13.90;;;7.63;;
65033;SDS011;51601;51.356;12.458;2022-07-23T07:19:12;12.23;;;7.30;;
65033;SDS011;51601;51.356;12.458;2022-07-23T07:23:27;11.85;;;6.97;;
65033;SDS011;51601;51.356;12.458;2022-07-23T07:27:41;12.20;;;6.82;;
65033;SDS011;51601;51.356;12.458;2022-07-23T07:31:55;9.67;;;5.80;;
65033;SDS011;51601;51.356;12.458;2022-07-23T07:36:09;10.32;;;6.35;;
65033;SDS011;51601;51.356;12.458;2022-07-23T07:40:31;13.48;;;7.72;;
65033;SDS011;51601;51.356;12.458;2022-07-23T07:44:46;11.75;;;6.80;;
65033;SDS011;51601;51.356;12.458;2022-07-23T07:49:00;13.87;;;6.70;;
65033;SDS011;51601;51.356;12.458;2022-07-23T07:53:16;11.40;;;7.43;;
65033;SDS011;51601;51.356;12.458;2022-07-23T07:57:32;21.58;;;9.05;;
65033;SDS011;51601;51.356;12.458;2022-07-23T08:01:46;14.60;;;8.07;;
65033;SDS011;51601;51.356;12.458;2022-07-23T08:05:59;13.18;;;8.10;;
65033;SDS011;51601;51.356;12.458;2022-07-23T08:10:13;12.60;;;7.68;;
65033;SDS011;51601;51.356;12.458;2022-07-23T08:14:29;16.80;;;10.43;;
65033;SDS011;51601;51.356;12.458;2022-07-23T08:18:42;11.93;;;8.40;;
65033;SDS011;51601;51.356;12.458;2022-07-23T08:22:57;12.85;;;8.30;;
65033;SDS011;51601;51.356;12.458;2022-07-23T08:27:11;13.73;;;8.18;;
65033;SDS011;51601;51.356;12.458;2022-07-23T08:31:26;14.03;;;8.33;;
65033;SDS011;51601;51.356;12.458;2022-07-23T08:35:41;12.73;;;8.27;;
65033;SDS011;51601;51.356;12.458;2022-07-23T08:39:57;15.18;;;8.45;;
65033;SDS011;51601;51.356;12.458;2022-07-23T08:44:11;13.77;;;8.87;;
65033;SDS011;51601;51.356;12.458;2022-07-23T08:48:28;13.43;;;8.60;;
65033;SDS011;51601;51.356;12.458;2022-07-23T08:52:43;12.43;;;7.80;;
65033;SDS011;51601;51.356;12.458;2022-07-23T08:56:57;12.17;;;7.40;;
65033;SDS011;51601;51.356;12.458;2022-07-23T09:01:11;12.95;;;7.78;;
65033;SDS011;51601;51.356;12.458;2022-07-23T09:05:26;11.73;;;7.57;;
65033;SDS011;51601;51.356;12.458;2022-07-23T09:09:40;13.20;;;9.18;;
65033;SDS011;51601;51.356;12.458;2022-07-23T09:13:54;13.80;;;8.43;;
65033;SDS011;51601;51.356;12.458;2022-07-23T09:18:11;14.20;;;9.35;;
65033;SDS011;51601;51.356;12.458;2022-07-23T09:22:30;15.50;;;10.02;;
65033;SDS011;51601;51.356;12.458;2022-07-23T09:26:44;15.17;;;10.83;;
65033;SDS011;51601;51.356;12.458;2022-07-23T09:31:00;15.30;;;10.30;;
65033;SDS011;51601;51.356;12.458;2022-07-23T09:35:14;14.02;;;9.45;;
65033;SDS011;51601;51.356;12.458;2022-07-23T09:39:29;14.13;;;9.67;;
65033;SDS011;51601;51.356;12.458;2022-07-23T09:43:44;15.00;;;9.48;;
65033;SDS011;51601;51.356;12.458;2022-07-23T09:48:09;15.77;;;10.10;;
65033;SDS011;51601;51.356;12.458;2022-07-23T09:52:25;15.25;;;10.55;;
65033;SDS011;51601;51.356;12.458;2022-07-23T09:56:46;15.73;;;10.97;;
65033;SDS011;51601;51.356;12.458;2022-07-23T10:01:00;16.35;;;11.18;;
65033;SDS011;51601;51.356;12.458;2022-07-23T10:05:14;15.65;;;10.85;;
65033;SDS011;51601;51.356;12.458;2022-07-23T10:09:52;14.00;;;9.87;;
65033;SDS011;51601;51.356;12.458;2022-07-23T10:14:27;17.25;;;9.93;;
65033;SDS011;51601;51.356;12.458;2022-07-23T10:18:46;14.65;;;9.95;;
65033;SDS011;51601;51.356;12.458;2022-07-23T10:23:02;14.53;;;9.30;;
65033;SDS011;51601;51.356;12.458;2022-07-23T10:27:31;12.02;;;8.63;;
65033;SDS011;51601;51.356;12.458;2022-07-23T10:32:00;14.38;;;9.20;;
65033;SDS011;51601;51.356;12.458;2022-07-23T10:36:22;12.82;;;8.98;;
65033;SDS011;51601;51.356;12.458;2022-07-23T10:40:55;14.10;;;9.33;;
65033;SDS011;51601;51.356;12.458;2022-07-23T10:45:28;14.82;;;8.80;;
65033;SDS011;51601;51.356;12.458;2022-07-23T10:49:44;14.55;;;8.88;;
65033;SDS011;51601;51.356;12.458;2022-07-23T10:53:58;12.90;;;8.20;;
65033;SDS011;51601;51.356;12.458;2022-07-23T10:58:17;13.40;;;8.18;;
65033;SDS011;51601;51.356;12.458;2022-07-23T11:02:35;14.93;;;8.77;;
65033;SDS011;51601;51.356;12.458;2022-07-23T11:07:07;13.53;;;8.90;;
65033;SDS011;51601;51.356;12.458;2022-07-23T11:11:24;14.85;;;9.00;;
65033;SDS011;51601;51.356;12.458;2022-07-23T11:15:47;19.10;;;10.95;;
65033;SDS011;51601;51.356;12.458;2022-07-23T11:20:19;16.83;;;9.93;;
65033;SDS011;51601;51.356;12.458;2022-07-23T11:24:36;15.53;;;9.70;;
65033;SDS011;51601;51.356;12.458;2022-07-23T11:38:43;15.13;;;11.13;;
65033;SDS011;51601;51.356;12.458;2022-07-23T11:43:00;16.95;;;11.93;;
65033;SDS011;51601;51.356;12.458;2022-07-23T11:47:41;18.27;;;12.20;;
65033;SDS011;51601;51.356;12.458;2022-07-23T11:52:09;16.57;;;11.70;;
65033;SDS011;51601;51.356;12.458;2022-07-23T11:56:54;16.27;;;12.15;;
65033;SDS011;51601;51.356;12.458;2022-07-23T12:01:10;15.00;;;11.45;;
65033;SDS011;51601;51.356;12.458;2022-07-23T12:05:25;15.18;;;10.60;;
65033;SDS011;51601;51.356;12.458;2022-07-23T12:09:43;15.50;;;9.67;;
65033;SDS011;51601;51.356;12.458;2022-07-23T12:13:57;14.68;;;10.25;;
65033;SDS011;51601;51.356;12.458;2022-07-23T12:18:14;16.23;;;9.35;;
65033;SDS011;51601;51.356;12.458;2022-07-23T12:22:33;15.13;;;9.47;;
65033;SDS011;51601;51.356;12.458;2022-07-23T12:31:25;15.57;;;11.15;;
65033;SDS011;51601;51.356;12.458;2022-07-23T12:35:41;14.90;;;9.93;;
65033;SDS011;51601;51.356;12.458;2022-07-23T12:39:58;13.82;;;9.93;;
65033;SDS011;51601;51.356;12.458;2022-07-23T12:44:30;15.38;;;9.90;;
65033;SDS011;51601;51.356;12.458;2022-07-23T12:48:51;13.30;;;10.27;;
65033;SDS011;51601;51.356;12.458;2022-07-23T12:53:09;16.40;;;10.40;;
65033;SDS011;51601;51.356;12.458;2022-07-23T12:57:47;14.18;;;10.43;;
65033;SDS011;51601;51.356;12.458;2022-07-23T13:02:02;15.85;;;10.82;;
65033;SDS011;51601;51.356;12.458;2022-07-23T13:06:15;14.17;;;10.20;;
65033;SDS011;51601;51.356;12.458;2022-07-23T13:10:33;14.93;;;10.60;;
65033;SDS011;51601;51.356;12.458;2022-07-23T13:14:47;15.60;;;11.52;;
65033;SDS011;51601;51.356;12.458;2022-07-23T13:19:02;16.73;;;12.40;;
65033;SDS011;51601;51.356;12.458;2022-07-23T13:23:16;13.65;;;10.82;;
65033;SDS011;51601;51.356;12.458;2022-07-23T13:27:32;12.60;;;9.20;;
65033;SDS011;51601;51.356;12.458;2022-07-23T13:31:51;12.90;;;10.18;;
65033;SDS011;51601;51.356;12.458;2022-07-23T13:36:05;14.37;;;10.07;;
65033;SDS011;51601;51.356;12.458;2022-07-23T13:40:19;13.35;;;10.38;;
65033;SDS011;51601;51.356;12.458;2022-07-23T13:44:37;15.57;;;10.70;;
65033;SDS011;51601;51.356;12.458;2022-07-23T13:48:51;15.03;;;11.87;;
65033;SDS011;51601;51.356;12.458;2022-07-23T13:53:06;14.65;;;11.45;;
65033;SDS011;51601;51.356;12.458;2022-07-23T13:57:21;16.63;;;10.80;;
65033;SDS011;51601;51.356;12.458;2022-07-23T14:01:39;14.27;;;10.90;;
65033;SDS011;51601;51.356;12.458;2022-07-23T14:06:13;15.02;;;11.68;;
65033;SDS011;51601;51.356;12.458;2022-07-23T14:10:27;16.65;;;12.80;;
65033;SDS011;51601;51.356;12.458;2022-07-23T14:14:43;16.48;;;11.40;;
65033;SDS011;51601;51.356;12.458;2022-07-23T14:18:58;18.63;;;14.07;;
65033;SDS011;51601;51.356;12.458;2022-07-23T14:23:13;15.60;;;11.40;;
65033;SDS011;51601;51.356;12.458;2022-07-23T14:27:27;15.32;;;11.38;;
65033;SDS011;51601;51.356;12.458;2022-07-23T14:31:41;17.00;;;11.87;;
65033;SDS011;51601;51.356;12.458;2022-07-23T14:36:00;17.25;;;11.90;;
65033;SDS011;51601;51.356;12.458;2022-07-23T14:40:14;19.13;;;13.27;;
65033;SDS011;51601;51.356;12.458;2022-07-23T14:44:28;17.90;;;13.10;;
65033;SDS011;51601;51.356;12.458;2022-07-23T14:48:43;16.58;;;12.48;;
65033;SDS011;51601;51.356;12.458;2022-07-23T14:52:58;18.27;;;11.75;;
65033;SDS011;51601;51.356;12.458;2022-07-23T14:57:13;15.48;;;11.57;;
65033;SDS011;51601;51.356;12.458;2022-07-23T15:01:27;16.27;;;12.03;;
65033;SDS011;51601;51.356;12.458;2022-07-23T15:05:41;15.88;;;10.93;;
65033;SDS011;51601;51.356;12.458;2022-07-23T15:09:56;15.82;;;11.32;;
65033;SDS011;51601;51.356;12.458;2022-07-23T15:14:10;15.63;;;11.80;;
65033;SDS011;51601;51.356;12.458;2022-07-23T15:18:37;23.17;;;12.95;;
65033;SDS011;51601;51.356;12.458;2022-07-23T15:22:51;20.27;;;12.95;;
65033;SDS011;51601;51.356;12.458;2022-07-23T15:27:06;16.57;;;11.43;;
65033;SDS011;51601;51.356;12.458;2022-07-23T15:31:20;16.90;;;12.18;;
65033;SDS011;51601;51.356;12.458;2022-07-23T15:35:39;15.75;;;11.40;;
65033;SDS011;51601;51.356;12.458;2022-07-23T15:39:54;14.10;;;10.80;;
65033;SDS011;51601;51.356;12.458;2022-07-23T15:44:09;15.67;;;10.40;;
65033;SDS011;51601;51.356;12.458;2022-07-23T15:48:40;13.50;;;10.70;;
65033;SDS011;51601;51.356;12.458;2022-07-23T15:52:54;15.07;;;10.70;;
65033;SDS011;51601;51.356;12.458;2022-07-23T15:57:08;13.97;;;10.53;;
65033;SDS011;51601;51.356;12.458;2022-07-23T16:01:23;13.45;;;9.73;;
65033;SDS011;51601;51.356;12.458;2022-07-23T16:05:41;13.80;;;10.88;;
65033;SDS011;51601;51.356;12.458;2022-07-23T16:09:55;13.83;;;11.00;;
65033;SDS011;51601;51.356;12.458;2022-07-23T16:14:09;13.63;;;10.80;;
65033;SDS011;51601;51.356;12.458;2022-07-23T16:18:24;13.73;;;10.38;;
65033;SDS011;51601;51.356;12.458;2022-07-23T16:22:39;14.73;;;10.57;;
65033;SDS011;51601;51.356;12.458;2022-07-23T16:26:53;15.90;;;10.87;;
65033;SDS011;51601;51.356;12.458;2022-07-23T16:31:07;15.68;;;11.27;;
65033;SDS011;51601;51.356;12.458;2022-07-23T16:35:22;15.02;;;11.30;;
65033;SDS011;51601;51.356;12.458;2022-07-23T16:39:36;15.23;;;10.70;;
65033;SDS011;51601;51.356;12.458;2022-07-23T16:43:50;14.38;;;10.80;;
65033;SDS011;51601;51.356;12.458;2022-07-23T16:48:04;16.65;;;10.98;;
65033;SDS011;51601;51.356;12.458;2022-07-23T16:52:19;14.40;;;10.70;;
65033;SDS011;51601;51.356;12.458;2022-07-23T16:56:33;14.05;;;10.63;;
65033;SDS011;51601;51.356;12.458;2022-07-23T17:00:51;14.98;;;11.35;;
65033;SDS011;51601;51.356;12.458;2022-07-23T17:05:05;15.95;;;11.45;;
65033;SDS011;51601;51.356;12.458;2022-07-23T17:09:21;12.83;;;9.80;;
65033;SDS011;51601;51.356;12.458;2022-07-23T17:13:35;16.30;;;11.23;;
65033;SDS011;51601;51.356;12.458;2022-07-23T17:17:49;14.00;;;11.48;;
65033;SDS011;51601;51.356;12.458;2022-07-23T17:22:04;14.93;;;10.83;;
65033;SDS011;51601;51.356;12.458;2022-07-23T17:26:19;14.05;;;11.43;;
65033;SDS011;51601;51.356;12.458;2022-07-23T17:30:33;15.57;;;10.82;;
65033;SDS011;51601;51.356;12.458;2022-07-23T17:34:47;14.57;;;10.73;;
65033;SDS011;51601;51.356;12.458;2022-07-23T17:39:01;14.48;;;10.10;;
65033;SDS011;51601;51.356;12.458;2022-07-23T17:43:19;13.90;;;10.32;;
65033;SDS011;51601;51.356;12.458;2022-07-23T17:47:33;13.68;;;10.55;;
65033;SDS011;51601;51.356;12.458;2022-07-23T17:51:47;11.63;;;9.80;;
65033;SDS011;51601;51.356;12.458;2022-07-23T17:56:01;14.65;;;10.68;;
65033;SDS011;51601;51.356;12.458;2022-07-23T18:00:17;12.75;;;9.55;;
65033;SDS011;51601;51.356;12.458;2022-07-23T18:04:34;12.47;;;9.97;;
65033;SDS011;51601;51.356;12.458;2022-07-23T18:08:47;13.20;;;9.48;;
65033;SDS011;51601;51.356;12.458;2022-07-23T18:13:02;11.77;;;8.80;;
65033;SDS011;51601;51.356;12.458;2022-07-23T18:17:18;10.27;;;6.77;;
65033;SDS011;51601;51.356;12.458;2022-07-23T18:21:32;10.50;;;5.85;;
65033;SDS011;51601;51.356;12.458;2022-07-23T18:25:46;8.30;;;5.00;;
65033;SDS011;51601;51.356;12.458;2022-07-23T18:30:00;6.97;;;3.95;;
65033;SDS011;51601;51.356;12.458;2022-07-23T18:34:16;7.00;;;3.97;;
65033;SDS011;51601;51.356;12.458;2022-07-23T18:38:57;7.47;;;3.60;;
65033;SDS011;51601;51.356;12.458;2022-07-23T18:43:24;6.93;;;3.30;;
65033;SDS011;51601;51.356;12.458;2022-07-23T18:48:05;6.83;;;3.40;;
65033;SDS011;51601;51.356;12.458;2022-07-23T18:52:33;12.55;;;3.53;;
65033;SDS011;51601;51.356;12.458;2022-07-23T18:57:14;10.15;;;3.22;;
65033;SDS011;51601;51.356;12.458;2022-07-23T19:01:41;7.20;;;3.27;;
65033;SDS011;51601;51.356;12.458;2022-07-23T19:06:21;8.25;;;3.28;;
65033;SDS011;51601;51.356;12.458;2022-07-23T19:10:49;6.57;;;3.00;;
65033;SDS011;51601;51.356;12.458;2022-07-23T19:15:30;8.35;;;3.00;;
65033;SDS011;51601;51.356;12.458;2022-07-23T19:19:57;6.13;;;3.40;;
65033;SDS011;51601;51.356;12.458;2022-07-23T19:24:38;8.93;;;3.00;;
65033;SDS011;51601;51.356;12.458;2022-07-23T19:29:02;6.65;;;3.13;;
65033;SDS011;51601;51.356;12.458;2022-07-23T19:33:43;6.27;;;3.23;;
65033;SDS011;51601;51.356;12.458;2022-07-23T19:38:10;8.68;;;3.50;;
65033;SDS011;51601;51.356;12.458;2022-07-23T19:42:51;6.80;;;4.00;;
65033;SDS011;51601;51.356;12.458;2022-07-23T19:47:20;7.40;;;3.90;;
65033;SDS011;51601;51.356;12.458;2022-07-23T19:52:00;8.07;;;3.50;;
65033;SDS011;51601;51.356;12.458;2022-07-23T19:56:27;7.18;;;3.60;;
65033;SDS011;51601;51.356;12.458;2022-07-23T20:01:08;7.53;;;3.25;;
65033;SDS011;51601;51.356;12.458;2022-07-23T20:05:37;6.57;;;3.23;;
65033;SDS011;51601;51.356;12.458;2022-07-23T20:10:17;6.40;;;3.38;;
65033;SDS011;51601;51.356;12.458;2022-07-23T20:14:37;7.43;;;3.00;;
65033;SDS011;51601;51.356;12.458;2022-07-23T20:19:18;6.70;;;3.60;;
65033;SDS011;51601;51.356;12.458;2022-07-23T20:23:46;7.07;;;3.50;;
65033;SDS011;51601;51.356;12.458;2022-07-23T20:28:30;7.07;;;3.38;;
65033;SDS011;51601;51.356;12.458;2022-07-23T20:32:56;7.47;;;3.50;;
65033;SDS011;51601;51.356;12.458;2022-07-23T20:37:37;6.85;;;3.60;;
65033;SDS011;51601;51.356;12.458;2022-07-23T20:42:06;6.70;;;3.30;;
65033;SDS011;51601;51.356;12.458;2022-07-23T20:46:46;5.97;;;3.40;;
65033;SDS011;51601;51.356;12.458;2022-07-23T20:51:06;6.83;;;3.30;;
65033;SDS011;51601;51.356;12.458;2022-07-23T20:55:47;7.05;;;3.35;;
65033;SDS011;51601;51.356;12.458;2022-07-23T21:00:15;12.85;;;6.70;;
65033;SDS011;51601;51.356;12.458;2022-07-23T21:04:56;6.83;;;3.60;;
65033;SDS011;51601;51.356;12.458;2022-07-23T21:09:23;7.20;;;3.40;;
65033;SDS011;51601;51.356;12.458;2022-07-23T21:14:04;7.57;;;3.90;;
65033;SDS011;51601;51.356;12.458;2022-07-23T21:18:33;7.53;;;3.60;;
65033;SDS011;51601;51.356;12.458;2022-07-23T21:23:07;8.18;;;4.10;;
65033;SDS011;51601;51.356;12.458;2022-07-23T21:27:33;8.93;;;5.68;;
65033;SDS011;51601;51.356;12.458;2022-07-23T21:32:14;8.88;;;3.75;;
65033;SDS011;51601;51.356;12.458;2022-07-23T21:36:42;6.73;;;3.80;;
65033;SDS011;51601;51.356;12.458;2022-07-23T21:41:22;7.57;;;3.70;;
65033;SDS011;51601;51.356;12.458;2022-07-23T21:46:03;6.85;;;3.50;;
65033;SDS011;51601;51.356;12.458;2022-07-23T21:50:30;6.53;;;3.20;;
65033;SDS011;51601;51.356;12.458;2022-07-23T21:55:12;6.60;;;2.70;;
65033;SDS011;51601;51.356;12.458;2022-07-23T21:59:32;7.13;;;3.13;;
65033;SDS011;51601;51.356;12.458;2022-07-23T22:04:16;7.90;;;2.80;;
65033;SDS011;51601;51.356;12.458;2022-07-23T22:08:42;7.10;;;3.75;;
65033;SDS011;51601;51.356;12.458;2022-07-23T22:13:24;8.50;;;3.15;;
65033;SDS011;51601;51.356;12.458;2022-07-23T22:17:51;9.35;;;3.40;;
65033;SDS011;51601;51.356;12.458;2022-07-23T22:22:32;6.80;;;3.17;;
65033;SDS011;51601;51.356;12.458;2022-07-23T22:26:58;6.93;;;3.63;;
65033;SDS011;51601;51.356;12.458;2022-07-23T22:31:33;9.18;;;3.63;;
65033;SDS011;51601;51.356;12.458;2022-07-23T22:36:07;6.70;;;3.40;;
65033;SDS011;51601;51.356;12.458;2022-07-23T22:40:47;7.45;;;3.83;;
65033;SDS011;51601;51.356;12.458;2022-07-23T22:45:13;7.18;;;3.78;;
65033;SDS011;51601;51.356;12.458;2022-07-23T22:49:55;7.43;;;3.50;;
65033;SDS011;51601;51.356;12.458;2022-07-23T22:54:29;6.68;;;3.22;;
65033;SDS011;51601;51.356;12.458;2022-07-23T22:59:10;6.20;;;3.53;;
65033;SDS011;51601;51.356;12.458;2022-07-23T23:03:47;10.35;;;5.50;;
65033;SDS011;51601;51.356;12.458;2022-07-23T23:08:16;7.57;;;3.33;;
65033;SDS011;51601;51.356;12.458;2022-07-23T23:12:56;8.20;;;3.47;;
65033;SDS011;51601;51.356;12.458;2022-07-23T23:17:22;6.72;;;3.35;;
65033;SDS011;51601;51.356;12.458;2022-07-23T23:22:03;9.20;;;3.60;;
65033;SDS011;51601;51.356;12.458;2022-07-23T23:26:32;8.15;;;3.58;;
65033;SDS011;51601;51.356;12.458;2022-07-23T23:30:46;7.90;;;3.63;;
65033;SDS011;51601;51.356;12.458;2022-07-23T23:35:00;8.70;;;4.20;;
65033;SDS011;51601;51.356;12.458;2022-07-23T23:39:14;7.38;;;3.72;;
65033;SDS011;51601;51.356;12.458;2022-07-23T23:43:29;7.57;;;3.65;;
65033;SDS011;51601;51.356;12.458;2022-07-23T23:47:43;7.45;;;3.60;;
65033;SDS011;51601;51.356;12.458;2022-07-23T23:51:56;7.17;;;3.80;;
65033;SDS011;51601;51.356;12.458;2022-07-23T23:56:10;7.88;;;4.13;;
